sensor_id;sensor_type;location;lat;lon;timestamp;P1;durP1;ratioP1;P2;durP2;ratioP2
43124;SDS011;49182;50.788;7.318;2024-02-26T00:04:46;2.58;;;1.45;;
43124;SDS011;49182;50.788;7.318;2024-02-26T00:14:49;3.08;;;2.00;;
43124;SDS011;49182;50.788;7.318;2024-02-26T00:19:52;3.58;;;1.58;;
43124;SDS011;49182;50.788;7.318;2024-02-26T00:24:54;2.13;;;1.65;;
43124;SDS011;49182;50.788;7.318;2024-02-26T00:29:56;1.27;;;0.90;;
43124;SDS011;49182;50.788;7.318;2024-02-26T00:34:59;2.25;;;2.03;;
43124;SDS011;49182;50.788;7.318;2024-02-26T00:45:02;1.73;;;1.15;;
43124;SDS011;49182;50.788;7.318;2024-02-26T00:50:06;1.70;;;1.13;;
43124;SDS011;49182;50.788;7.318;2024-02-26T00:55:09;1.70;;;1.60;;
43124;SDS011;49182;50.788;7.318;2024-02-26T01:00:11;2.13;;;0.73;;
43124;SDS011;49182;50.788;7.318;2024-02-26T01:05:14;2.10;;;1.60;;
43124;SDS011;49182;50.788;7.318;2024-02-26T01:10:16;2.78;;;1.17;;
43124;SDS011;49182;50.788;7.318;2024-02-26T01:15:18;2.47;;;1.40;;
43124;SDS011;49182;50.788;7.318;2024-02-26T01:20:21;1.55;;;1.00;;
43124;SDS011;49182;50.788;7.318;2024-02-26T01:35:28;1.60;;;1.42;;
43124;SDS011;49182;50.788;7.318;2024-02-26T01:45:31;1.85;;;1.40;;
43124;SDS011;49182;50.788;7.318;2024-02-26T01:50:34;2.40;;;2.17;;
43124;SDS011;49182;50.788;7.318;2024-02-26T02:00:41;2.45;;;1.50;;
43124;SDS011;49182;50.788;7.318;2024-02-26T02:05:44;2.13;;;1.25;;
43124;SDS011;49182;50.788;7.318;2024-02-26T02:10:46;2.22;;;1.50;;
43124;SDS011;49182;50.788;7.318;2024-02-26T02:15:49;2.33;;;2.13;;
43124;SDS011;49182;50.788;7.318;2024-02-26T02:20:52;1.67;;;1.58;;
43124;SDS011;49182;50.788;7.318;2024-02-26T02:25:54;2.65;;;1.20;;
43124;SDS011;49182;50.788;7.318;2024-02-26T02:30:58;1.90;;;1.65;;
43124;SDS011;49182;50.788;7.318;2024-02-26T02:36:01;1.63;;;1.17;;
43124;SDS011;49182;50.788;7.318;2024-02-26T02:41:03;2.17;;;1.60;;
43124;SDS011;49182;50.788;7.318;2024-02-26T02:46:06;1.70;;;1.08;;
43124;SDS011;49182;50.788;7.318;2024-02-26T02:51:09;1.88;;;1.58;;
43124;SDS011;49182;50.788;7.318;2024-02-26T02:56:10;2.55;;;1.58;;
43124;SDS011;49182;50.788;7.318;2024-02-26T03:01:12;2.35;;;1.60;;
43124;SDS011;49182;50.788;7.318;2024-02-26T03:06:16;2.72;;;1.58;;
43124;SDS011;49182;50.788;7.318;2024-02-26T03:16:19;2.05;;;1.23;;
43124;SDS011;49182;50.788;7.318;2024-02-26T03:21:24;2.97;;;1.50;;
43124;SDS011;49182;50.788;7.318;2024-02-26T03:26:26;1.73;;;1.35;;
43124;SDS011;49182;50.788;7.318;2024-02-26T03:31:28;1.73;;;1.02;;
43124;SDS011;49182;50.788;7.318;2024-02-26T03:36:31;4.15;;;1.40;;
43124;SDS011;49182;50.788;7.318;2024-02-26T03:46:34;2.60;;;1.90;;
43124;SDS011;49182;50.788;7.318;2024-02-26T03:51:37;2.10;;;1.27;;
43124;SDS011;49182;50.788;7.318;2024-02-26T03:56:39;1.98;;;1.52;;
43124;SDS011;49182;50.788;7.318;2024-02-26T04:01:44;3.00;;;1.80;;
43124;SDS011;49182;50.788;7.318;2024-02-26T04:06:48;2.20;;;0.77;;
43124;SDS011;49182;50.788;7.318;2024-02-26T04:11:49;1.50;;;1.05;;
43124;SDS011;49182;50.788;7.318;2024-02-26T04:16:51;2.13;;;1.85;;
43124;SDS011;49182;50.788;7.318;2024-02-26T04:21:54;3.13;;;1.50;;
43124;SDS011;49182;50.788;7.318;2024-02-26T04:26:56;1.75;;;1.17;;
43124;SDS011;49182;50.788;7.318;2024-02-26T04:31:58;1.65;;;1.40;;
43124;SDS011;49182;50.788;7.318;2024-02-26T04:37:01;4.20;;;1.20;;
43124;SDS011;49182;50.788;7.318;2024-02-26T04:42:03;2.85;;;1.42;;
43124;SDS011;49182;50.788;7.318;2024-02-26T04:47:05;2.42;;;1.27;;
43124;SDS011;49182;50.788;7.318;2024-02-26T04:52:08;1.90;;;1.48;;
43124;SDS011;49182;50.788;7.318;2024-02-26T05:02:11;2.67;;;1.63;;
43124;SDS011;49182;50.788;7.318;2024-02-26T05:07:15;2.00;;;0.90;;
43124;SDS011;49182;50.788;7.318;2024-02-26T05:12:16;2.63;;;1.90;;
43124;SDS011;49182;50.788;7.318;2024-02-26T05:17:18;1.85;;;1.27;;
43124;SDS011;49182;50.788;7.318;2024-02-26T05:22:21;2.78;;;1.50;;
43124;SDS011;49182;50.788;7.318;2024-02-26T05:32:25;2.85;;;2.08;;
43124;SDS011;49182;50.788;7.318;2024-02-26T05:37:29;2.55;;;1.92;;
43124;SDS011;49182;50.788;7.318;2024-02-26T05:42:30;2.15;;;1.77;;
43124;SDS011;49182;50.788;7.318;2024-02-26T05:47:32;1.58;;;1.20;;
43124;SDS011;49182;50.788;7.318;2024-02-26T05:52:35;2.38;;;1.15;;
43124;SDS011;49182;50.788;7.318;2024-02-26T05:57:37;2.03;;;1.40;;
43124;SDS011;49182;50.788;7.318;2024-02-26T06:02:39;2.22;;;1.52;;
43124;SDS011;49182;50.788;7.318;2024-02-26T06:07:43;1.73;;;1.40;;
43124;SDS011;49182;50.788;7.318;2024-02-26T06:17:46;2.15;;;1.92;;
43124;SDS011;49182;50.788;7.318;2024-02-26T06:22:49;4.00;;;1.67;;
43124;SDS011;49182;50.788;7.318;2024-02-26T06:27:52;2.38;;;1.73;;
43124;SDS011;49182;50.788;7.318;2024-02-26T06:32:54;2.75;;;1.35;;
43124;SDS011;49182;50.788;7.318;2024-02-26T06:37:57;4.40;;;1.98;;
43124;SDS011;49182;50.788;7.318;2024-02-26T06:42:58;2.47;;;1.60;;
43124;SDS011;49182;50.788;7.318;2024-02-26T06:48:00;3.08;;;1.83;;
43124;SDS011;49182;50.788;7.318;2024-02-26T06:53:04;2.60;;;1.95;;
43124;SDS011;49182;50.788;7.318;2024-02-26T06:58:06;2.72;;;1.63;;
43124;SDS011;49182;50.788;7.318;2024-02-26T07:03:07;2.83;;;1.77;;
43124;SDS011;49182;50.788;7.318;2024-02-26T07:08:11;3.85;;;2.28;;
43124;SDS011;49182;50.788;7.318;2024-02-26T07:18:14;2.75;;;1.90;;
43124;SDS011;49182;50.788;7.318;2024-02-26T07:23:17;3.15;;;2.40;;
43124;SDS011;49182;50.788;7.318;2024-02-26T07:28:19;2.97;;;2.28;;
43124;SDS011;49182;50.788;7.318;2024-02-26T07:33:20;3.20;;;2.33;;
43124;SDS011;49182;50.788;7.318;2024-02-26T07:38:24;2.33;;;1.92;;
43124;SDS011;49182;50.788;7.318;2024-02-26T07:43:42;2.92;;;1.38;;
43124;SDS011;49182;50.788;7.318;2024-02-26T07:48:44;2.55;;;1.85;;
43124;SDS011;49182;50.788;7.318;2024-02-26T07:53:47;4.43;;;2.05;;
43124;SDS011;49182;50.788;7.318;2024-02-26T08:03:51;3.22;;;1.58;;
43124;SDS011;49182;50.788;7.318;2024-02-26T08:08:54;3.75;;;1.80;;
43124;SDS011;49182;50.788;7.318;2024-02-26T08:18:57;2.42;;;1.58;;
43124;SDS011;49182;50.788;7.318;2024-02-26T08:24:00;2.90;;;2.45;;
43124;SDS011;49182;50.788;7.318;2024-02-26T08:39:07;3.35;;;2.40;;
43124;SDS011;49182;50.788;7.318;2024-02-26T08:49:10;5.20;;;2.28;;
43124;SDS011;49182;50.788;7.318;2024-02-26T08:54:13;3.17;;;2.63;;
43124;SDS011;49182;50.788;7.318;2024-02-26T08:59:15;2.72;;;1.95;;
43124;SDS011;49182;50.788;7.318;2024-02-26T09:04:17;3.53;;;2.38;;
43124;SDS011;49182;50.788;7.318;2024-02-26T09:09:20;5.00;;;2.58;;
43124;SDS011;49182;50.788;7.318;2024-02-26T09:14:22;3.95;;;2.30;;
43124;SDS011;49182;50.788;7.318;2024-02-26T09:19:26;3.50;;;1.70;;
43124;SDS011;49182;50.788;7.318;2024-02-26T09:24:30;3.00;;;2.13;;
43124;SDS011;49182;50.788;7.318;2024-02-26T09:29:31;2.67;;;2.22;;
43124;SDS011;49182;50.788;7.318;2024-02-26T09:34:33;3.30;;;2.92;;
43124;SDS011;49182;50.788;7.318;2024-02-26T09:39:37;2.63;;;1.95;;
43124;SDS011;49182;50.788;7.318;2024-02-26T09:44:40;2.42;;;2.00;;
43124;SDS011;49182;50.788;7.318;2024-02-26T09:49:42;3.47;;;2.08;;
43124;SDS011;49182;50.788;7.318;2024-02-26T09:54:47;3.20;;;2.45;;
43124;SDS011;49182;50.788;7.318;2024-02-26T09:59:49;3.17;;;2.15;;
43124;SDS011;49182;50.788;7.318;2024-02-26T10:04:54;5.55;;;1.90;;
43124;SDS011;49182;50.788;7.318;2024-02-26T10:09:59;3.42;;;2.80;;
43124;SDS011;49182;50.788;7.318;2024-02-26T10:15:02;3.08;;;1.90;;
43124;SDS011;49182;50.788;7.318;2024-02-26T10:20:11;2.60;;;1.92;;
43124;SDS011;49182;50.788;7.318;2024-02-26T10:25:15;3.28;;;2.22;;
43124;SDS011;49182;50.788;7.318;2024-02-26T10:30:17;3.42;;;2.05;;
43124;SDS011;49182;50.788;7.318;2024-02-26T10:35:20;2.75;;;2.03;;
43124;SDS011;49182;50.788;7.318;2024-02-26T10:40:24;3.10;;;2.33;;
43124;SDS011;49182;50.788;7.318;2024-02-26T10:45:26;4.30;;;2.40;;
43124;SDS011;49182;50.788;7.318;2024-02-26T10:50:28;3.33;;;2.13;;
43124;SDS011;49182;50.788;7.318;2024-02-26T10:55:31;3.70;;;1.75;;
43124;SDS011;49182;50.788;7.318;2024-02-26T11:00:35;3.05;;;1.80;;
43124;SDS011;49182;50.788;7.318;2024-02-26T11:05:39;4.05;;;1.63;;
43124;SDS011;49182;50.788;7.318;2024-02-26T11:10:44;3.60;;;2.00;;
43124;SDS011;49182;50.788;7.318;2024-02-26T11:15:48;4.82;;;3.13;;
43124;SDS011;49182;50.788;7.318;2024-02-26T11:20:53;2.90;;;2.45;;
43124;SDS011;49182;50.788;7.318;2024-02-26T11:25:57;5.07;;;3.00;;
43124;SDS011;49182;50.788;7.318;2024-02-26T11:30:59;2.95;;;2.08;;
43124;SDS011;49182;50.788;7.318;2024-02-26T11:36:07;3.75;;;1.90;;
43124;SDS011;49182;50.788;7.318;2024-02-26T11:41:11;3.75;;;2.70;;
43124;SDS011;49182;50.788;7.318;2024-02-26T11:46:24;4.22;;;2.28;;
43124;SDS011;49182;50.788;7.318;2024-02-26T11:51:26;5.10;;;3.47;;
43124;SDS011;49182;50.788;7.318;2024-02-26T11:56:32;3.38;;;2.20;;
43124;SDS011;49182;50.788;7.318;2024-02-26T12:01:44;4.72;;;2.13;;
43124;SDS011;49182;50.788;7.318;2024-02-26T12:06:48;4.18;;;2.22;;
43124;SDS011;49182;50.788;7.318;2024-02-26T12:11:54;4.78;;;2.03;;
43124;SDS011;49182;50.788;7.318;2024-02-26T12:16:56;4.95;;;2.30;;
43124;SDS011;49182;50.788;7.318;2024-02-26T12:21:59;3.10;;;2.58;;
43124;SDS011;49182;50.788;7.318;2024-02-26T12:27:02;3.38;;;2.72;;
43124;SDS011;49182;50.788;7.318;2024-02-26T12:32:04;3.85;;;1.98;;
43124;SDS011;49182;50.788;7.318;2024-02-26T12:37:08;3.17;;;2.17;;
43124;SDS011;49182;50.788;7.318;2024-02-26T12:42:11;2.65;;;1.60;;
43124;SDS011;49182;50.788;7.318;2024-02-26T12:47:13;3.28;;;2.08;;
43124;SDS011;49182;50.788;7.318;2024-02-26T12:52:15;3.47;;;2.33;;
43124;SDS011;49182;50.788;7.318;2024-02-26T12:57:19;3.42;;;2.58;;
43124;SDS011;49182;50.788;7.318;2024-02-26T13:02:21;3.97;;;1.98;;
43124;SDS011;49182;50.788;7.318;2024-02-26T13:07:23;3.03;;;1.55;;
43124;SDS011;49182;50.788;7.318;2024-02-26T13:12:26;3.53;;;2.58;;
43124;SDS011;49182;50.788;7.318;2024-02-26T13:17:31;3.83;;;2.60;;
43124;SDS011;49182;50.788;7.318;2024-02-26T13:22:32;4.45;;;2.60;;
43124;SDS011;49182;50.788;7.318;2024-02-26T13:27:36;3.42;;;2.17;;
43124;SDS011;49182;50.788;7.318;2024-02-26T13:32:38;2.45;;;1.40;;
43124;SDS011;49182;50.788;7.318;2024-02-26T13:37:41;4.00;;;2.55;;
43124;SDS011;49182;50.788;7.318;2024-02-26T13:42:44;4.93;;;3.13;;
43124;SDS011;49182;50.788;7.318;2024-02-26T13:47:46;3.88;;;2.75;;
43124;SDS011;49182;50.788;7.318;2024-02-26T13:52:48;3.58;;;2.85;;
43124;SDS011;49182;50.788;7.318;2024-02-26T13:57:51;5.10;;;2.60;;
43124;SDS011;49182;50.788;7.318;2024-02-26T14:02:53;4.05;;;2.25;;
43124;SDS011;49182;50.788;7.318;2024-02-26T14:07:55;5.82;;;2.70;;
43124;SDS011;49182;50.788;7.318;2024-02-26T14:12:58;4.20;;;2.08;;
43124;SDS011;49182;50.788;7.318;2024-02-26T14:18:00;4.60;;;3.00;;
43124;SDS011;49182;50.788;7.318;2024-02-26T14:23:02;5.75;;;4.13;;
43124;SDS011;49182;50.788;7.318;2024-02-26T14:28:06;7.57;;;4.30;;
43124;SDS011;49182;50.788;7.318;2024-02-26T14:33:09;4.78;;;3.03;;
43124;SDS011;49182;50.788;7.318;2024-02-26T14:38:11;4.93;;;3.20;;
43124;SDS011;49182;50.788;7.318;2024-02-26T14:43:14;4.60;;;2.78;;
43124;SDS011;49182;50.788;7.318;2024-02-26T14:48:16;4.88;;;3.15;;
43124;SDS011;49182;50.788;7.318;2024-02-26T14:53:18;4.57;;;3.67;;
43124;SDS011;49182;50.788;7.318;2024-02-26T14:58:22;4.40;;;3.22;;
43124;SDS011;49182;50.788;7.318;2024-02-26T15:08:25;6.07;;;3.50;;
43124;SDS011;49182;50.788;7.318;2024-02-26T15:13:28;4.55;;;3.15;;
43124;SDS011;49182;50.788;7.318;2024-02-26T15:18:30;6.32;;;3.90;;
43124;SDS011;49182;50.788;7.318;2024-02-26T15:23:31;4.68;;;3.92;;
43124;SDS011;49182;50.788;7.318;2024-02-26T15:28:36;5.57;;;3.70;;
43124;SDS011;49182;50.788;7.318;2024-02-26T15:33:38;6.93;;;4.47;;
43124;SDS011;49182;50.788;7.318;2024-02-26T15:38:42;5.88;;;3.72;;
43124;SDS011;49182;50.788;7.318;2024-02-26T15:43:45;6.63;;;4.13;;
43124;SDS011;49182;50.788;7.318;2024-02-26T15:48:48;5.63;;;3.50;;
43124;SDS011;49182;50.788;7.318;2024-02-26T15:53:50;6.18;;;4.35;;
43124;SDS011;49182;50.788;7.318;2024-02-26T15:58:53;6.25;;;4.20;;
43124;SDS011;49182;50.788;7.318;2024-02-26T16:03:55;8.48;;;4.15;;
43124;SDS011;49182;50.788;7.318;2024-02-26T16:08:56;7.50;;;4.55;;
43124;SDS011;49182;50.788;7.318;2024-02-26T16:14:08;6.72;;;4.30;;
43124;SDS011;49182;50.788;7.318;2024-02-26T16:19:14;7.60;;;3.70;;
43124;SDS011;49182;50.788;7.318;2024-02-26T16:24:20;5.93;;;3.83;;
43124;SDS011;49182;50.788;7.318;2024-02-26T16:29:23;7.20;;;3.65;;
43124;SDS011;49182;50.788;7.318;2024-02-26T16:34:25;6.80;;;4.45;;
43124;SDS011;49182;50.788;7.318;2024-02-26T16:39:27;6.43;;;3.85;;
43124;SDS011;49182;50.788;7.318;2024-02-26T16:44:30;8.48;;;3.78;;
43124;SDS011;49182;50.788;7.318;2024-02-26T16:49:35;7.30;;;3.60;;
43124;SDS011;49182;50.788;7.318;2024-02-26T16:54:37;10.10;;;4.25;;
43124;SDS011;49182;50.788;7.318;2024-02-26T16:59:40;5.47;;;3.97;;
43124;SDS011;49182;50.788;7.318;2024-02-26T17:04:42;7.65;;;5.15;;
43124;SDS011;49182;50.788;7.318;2024-02-26T17:09:44;9.05;;;4.55;;
43124;SDS011;49182;50.788;7.318;2024-02-26T17:14:47;8.38;;;5.18;;
43124;SDS011;49182;50.788;7.318;2024-02-26T17:19:49;8.05;;;4.18;;
43124;SDS011;49182;50.788;7.318;2024-02-26T17:24:50;12.57;;;5.40;;
43124;SDS011;49182;50.788;7.318;2024-02-26T17:29:53;8.57;;;4.80;;
43124;SDS011;49182;50.788;7.318;2024-02-26T17:34:55;5.60;;;3.78;;
43124;SDS011;49182;50.788;7.318;2024-02-26T17:39:57;6.88;;;5.03;;
43124;SDS011;49182;50.788;7.318;2024-02-26T17:45:00;8.65;;;4.85;;
43124;SDS011;49182;50.788;7.318;2024-02-26T17:50:02;7.38;;;5.13;;
43124;SDS011;49182;50.788;7.318;2024-02-26T17:55:04;6.30;;;4.22;;
43124;SDS011;49182;50.788;7.318;2024-02-26T18:00:08;7.97;;;4.45;;
43124;SDS011;49182;50.788;7.318;2024-02-26T18:05:11;5.97;;;3.80;;
43124;SDS011;49182;50.788;7.318;2024-02-26T18:10:13;7.85;;;4.72;;
43124;SDS011;49182;50.788;7.318;2024-02-26T18:15:16;7.45;;;5.50;;
43124;SDS011;49182;50.788;7.318;2024-02-26T18:20:18;9.40;;;5.80;;
43124;SDS011;49182;50.788;7.318;2024-02-26T18:25:20;7.75;;;4.82;;
43124;SDS011;49182;50.788;7.318;2024-02-26T18:30:23;6.10;;;4.57;;
43124;SDS011;49182;50.788;7.318;2024-02-26T18:35:24;7.32;;;4.15;;
43124;SDS011;49182;50.788;7.318;2024-02-26T18:40:26;6.78;;;4.88;;
43124;SDS011;49182;50.788;7.318;2024-02-26T18:45:29;7.70;;;5.32;;
43124;SDS011;49182;50.788;7.318;2024-02-26T18:50:31;9.00;;;4.82;;
43124;SDS011;49182;50.788;7.318;2024-02-26T18:55:33;8.68;;;5.40;;
43124;SDS011;49182;50.788;7.318;2024-02-26T19:00:36;9.75;;;5.63;;
43124;SDS011;49182;50.788;7.318;2024-02-26T19:05:38;8.65;;;5.72;;
43124;SDS011;49182;50.788;7.318;2024-02-26T19:10:40;8.25;;;5.13;;
43124;SDS011;49182;50.788;7.318;2024-02-26T19:15:46;8.20;;;4.63;;
43124;SDS011;49182;50.788;7.318;2024-02-26T19:20:48;8.43;;;4.63;;
43124;SDS011;49182;50.788;7.318;2024-02-26T19:25:50;7.18;;;4.57;;
43124;SDS011;49182;50.788;7.318;2024-02-26T19:30:53;6.90;;;4.75;;
43124;SDS011;49182;50.788;7.318;2024-02-26T19:35:54;7.45;;;5.43;;
43124;SDS011;49182;50.788;7.318;2024-02-26T19:40:56;9.98;;;6.00;;
43124;SDS011;49182;50.788;7.318;2024-02-26T19:45:59;9.02;;;6.10;;
43124;SDS011;49182;50.788;7.318;2024-02-26T19:51:01;10.88;;;6.57;;
43124;SDS011;49182;50.788;7.318;2024-02-26T19:56:03;9.27;;;6.38;;
43124;SDS011;49182;50.788;7.318;2024-02-26T20:01:09;9.63;;;6.10;;
43124;SDS011;49182;50.788;7.318;2024-02-26T20:06:11;8.95;;;6.95;;
43124;SDS011;49182;50.788;7.318;2024-02-26T20:11:14;7.35;;;4.63;;
43124;SDS011;49182;50.788;7.318;2024-02-26T20:16:18;8.10;;;5.28;;
43124;SDS011;49182;50.788;7.318;2024-02-26T20:21:20;8.38;;;5.97;;
43124;SDS011;49182;50.788;7.318;2024-02-26T20:26:22;12.70;;;7.70;;
43124;SDS011;49182;50.788;7.318;2024-02-26T20:31:25;9.65;;;6.53;;
43124;SDS011;49182;50.788;7.318;2024-02-26T20:36:26;10.50;;;5.40;;
43124;SDS011;49182;50.788;7.318;2024-02-26T20:41:28;8.48;;;5.50;;
43124;SDS011;49182;50.788;7.318;2024-02-26T20:46:32;9.18;;;5.68;;
43124;SDS011;49182;50.788;7.318;2024-02-26T20:51:33;7.25;;;6.18;;
43124;SDS011;49182;50.788;7.318;2024-02-26T20:56:35;9.07;;;6.30;;
43124;SDS011;49182;50.788;7.318;2024-02-26T21:01:38;8.32;;;5.75;;
43124;SDS011;49182;50.788;7.318;2024-02-26T21:06:40;8.40;;;5.80;;
43124;SDS011;49182;50.788;7.318;2024-02-26T21:11:42;6.93;;;5.20;;
43124;SDS011;49182;50.788;7.318;2024-02-26T21:16:45;8.07;;;4.50;;
43124;SDS011;49182;50.788;7.318;2024-02-26T21:21:47;7.68;;;4.85;;
43124;SDS011;49182;50.788;7.318;2024-02-26T21:26:48;10.32;;;6.45;;
43124;SDS011;49182;50.788;7.318;2024-02-26T21:31:53;7.55;;;5.78;;
43124;SDS011;49182;50.788;7.318;2024-02-26T21:36:54;11.02;;;6.28;;
43124;SDS011;49182;50.788;7.318;2024-02-26T21:41:56;13.15;;;8.73;;
43124;SDS011;49182;50.788;7.318;2024-02-26T21:46:59;13.13;;;9.65;;
43124;SDS011;49182;50.788;7.318;2024-02-26T21:52:01;14.27;;;10.38;;
43124;SDS011;49182;50.788;7.318;2024-02-26T21:57:04;14.43;;;8.23;;
43124;SDS011;49182;50.788;7.318;2024-02-26T22:02:07;13.02;;;7.85;;
43124;SDS011;49182;50.788;7.318;2024-02-26T22:07:09;13.40;;;8.88;;
43124;SDS011;49182;50.788;7.318;2024-02-26T22:12:11;12.95;;;8.40;;
43124;SDS011;49182;50.788;7.318;2024-02-26T22:17:14;14.80;;;9.82;;
43124;SDS011;49182;50.788;7.318;2024-02-26T22:22:16;11.40;;;9.27;;
43124;SDS011;49182;50.788;7.318;2024-02-26T22:27:18;11.77;;;8.32;;
43124;SDS011;49182;50.788;7.318;2024-02-26T22:32:21;14.57;;;9.25;;
43124;SDS011;49182;50.788;7.318;2024-02-26T22:37:22;10.93;;;8.60;;
43124;SDS011;49182;50.788;7.318;2024-02-26T22:42:24;13.25;;;9.38;;
43124;SDS011;49182;50.788;7.318;2024-02-26T22:47:27;12.73;;;9.65;;
43124;SDS011;49182;50.788;7.318;2024-02-26T22:52:29;11.48;;;9.02;;
43124;SDS011;49182;50.788;7.318;2024-02-26T22:57:31;13.25;;;8.38;;
43124;SDS011;49182;50.788;7.318;2024-02-26T23:02:34;12.18;;;8.63;;
43124;SDS011;49182;50.788;7.318;2024-02-26T23:07:35;14.50;;;8.60;;
43124;SDS011;49182;50.788;7.318;2024-02-26T23:12:37;12.20;;;7.00;;
43124;SDS011;49182;50.788;7.318;2024-02-26T23:17:41;9.43;;;6.65;;
43124;SDS011;49182;50.788;7.318;2024-02-26T23:22:44;10.27;;;8.05;;
43124;SDS011;49182;50.788;7.318;2024-02-26T23:27:47;9.85;;;7.13;;
43124;SDS011;49182;50.788;7.318;2024-02-26T23:32:51;10.73;;;7.43;;
43124;SDS011;49182;50.788;7.318;2024-02-26T23:37:53;10.98;;;7.68;;
43124;SDS011;49182;50.788;7.318;2024-02-26T23:42:55;12.27;;;7.22;;
43124;SDS011;49182;50.788;7.318;2024-02-26T23:47:58;13.43;;;7.63;;
43124;SDS011;49182;50.788;7.318;2024-02-26T23:53:00;9.52;;;7.60;;
43124;SDS011;49182;50.788;7.318;2024-02-26T23:58:02;11.82;;;8.93;;
